sensor_id;sensor_type;location;lat;lon;timestamp;temperature;humidity
21672;DHT22;10997;52.242;8.168;2023-05-23T00:02:40;14.20;99.90
21672;DHT22;10997;52.242;8.168;2023-05-23T00:07:42;14.10;99.90
21672;DHT22;10997;52.242;8.168;2023-05-23T00:12:43;14.30;99.90
21672;DHT22;10997;52.242;8.168;2023-05-23T00:17:44;14.30;99.90
21672;DHT22;10997;52.242;8.168;2023-05-23T00:22:46;14.40;99.90
21672;DHT22;10997;52.242;8.168;2023-05-23T00:27:47;14.40;99.90
21672;DHT22;10997;52.242;8.168;2023-05-23T00:32:48;14.40;99.90
21672;DHT22;10997;52.242;8.168;2023-05-23T00:37:48;14.40;99.90
21672;DHT22;10997;52.242;8.168;2023-05-23T00:42:51;14.50;99.90
21672;DHT22;10997;52.242;8.168;2023-05-23T00:47:51;14.50;99.90
21672;DHT22;10997;52.242;8.168;2023-05-23T00:52:52;14.40;99.90
21672;DHT22;10997;52.242;8.168;2023-05-23T00:57:53;14.30;99.90
21672;DHT22;10997;52.242;8.168;2023-05-23T01:02:57;14.20;99.90
21672;DHT22;10997;52.242;8.168;2023-05-23T01:07:58;14.10;99.90
21672;DHT22;10997;52.242;8.168;2023-05-23T01:13:40;14.00;99.90
21672;DHT22;10997;52.242;8.168;2023-05-23T01:18:50;13.90;99.90
21672;DHT22;10997;52.242;8.168;2023-05-23T01:24:23;13.70;99.90
21672;DHT22;10997;52.242;8.168;2023-05-23T01:29:41;13.70;99.90
21672;DHT22;10997;52.242;8.168;2023-05-23T01:34:43;13.60;99.90
21672;DHT22;10997;52.242;8.168;2023-05-23T01:39:45;13.60;99.90
21672;DHT22;10997;52.242;8.168;2023-05-23T01:44:46;13.60;99.90
21672;DHT22;10997;52.242;8.168;2023-05-23T01:49:47;13.60;99.90
21672;DHT22;10997;52.242;8.168;2023-05-23T01:54:48;13.60;99.90
21672;DHT22;10997;52.242;8.168;2023-05-23T01:59:50;13.60;99.90
21672;DHT22;10997;52.242;8.168;2023-05-23T02:04:50;13.60;99.90
21672;DHT22;10997;52.242;8.168;2023-05-23T02:09:54;13.60;99.90
21672;DHT22;10997;52.242;8.168;2023-05-23T02:14:54;13.50;99.90
21672;DHT22;10997;52.242;8.168;2023-05-23T02:19:55;13.50;99.90
21672;DHT22;10997;52.242;8.168;2023-05-23T02:24:56;13.40;99.90
21672;DHT22;10997;52.242;8.168;2023-05-23T02:29:56;13.40;99.90
21672;DHT22;10997;52.242;8.168;2023-05-23T02:34:57;13.40;99.90
21672;DHT22;10997;52.242;8.168;2023-05-23T02:39:58;13.40;99.90
21672;DHT22;10997;52.242;8.168;2023-05-23T02:44:59;13.50;99.90
21672;DHT22;10997;52.242;8.168;2023-05-23T02:50:00;13.50;99.90
21672;DHT22;10997;52.242;8.168;2023-05-23T02:55:01;13.50;99.90
21672;DHT22;10997;52.242;8.168;2023-05-23T03:00:02;13.50;99.90
21672;DHT22;10997;52.242;8.168;2023-05-23T03:05:04;13.50;99.90
21672;DHT22;10997;52.242;8.168;2023-05-23T03:10:06;13.60;99.90
21672;DHT22;10997;52.242;8.168;2023-05-23T03:15:07;13.50;99.90
21672;DHT22;10997;52.242;8.168;2023-05-23T03:20:08;13.50;99.90
21672;DHT22;10997;52.242;8.168;2023-05-23T03:25:09;13.50;99.90
21672;DHT22;10997;52.242;8.168;2023-05-23T03:30:10;13.50;99.90
21672;DHT22;10997;52.242;8.168;2023-05-23T03:35:11;13.50;99.90
21672;DHT22;10997;52.242;8.168;2023-05-23T03:40:11;13.50;99.90
21672;DHT22;10997;52.242;8.168;2023-05-23T03:45:12;13.50;99.90
21672;DHT22;10997;52.242;8.168;2023-05-23T03:50:12;13.50;99.90
21672;DHT22;10997;52.242;8.168;2023-05-23T03:55:13;13.50;99.90
21672;DHT22;10997;52.242;8.168;2023-05-23T04:00:14;13.50;99.90
21672;DHT22;10997;52.242;8.168;2023-05-23T04:05:15;13.40;99.90
21672;DHT22;10997;52.242;8.168;2023-05-23T04:10:15;13.40;99.90
21672;DHT22;10997;52.242;8.168;2023-05-23T04:15:16;13.40;99.90
21672;DHT22;10997;52.242;8.168;2023-05-23T04:20:17;13.40;99.90
21672;DHT22;10997;52.242;8.168;2023-05-23T04:25:17;13.40;99.90
21672;DHT22;10997;52.242;8.168;2023-05-23T04:30:19;13.40;99.90
21672;DHT22;10997;52.242;8.168;2023-05-23T04:35:20;13.40;99.90
21672;DHT22;10997;52.242;8.168;2023-05-23T04:40:21;13.40;99.90
21672;DHT22;10997;52.242;8.168;2023-05-23T04:45:22;13.50;99.90
21672;DHT22;10997;52.242;8.168;2023-05-23T04:50:23;13.40;99.90
21672;DHT22;10997;52.242;8.168;2023-05-23T04:55:24;13.40;99.90
21672;DHT22;10997;52.242;8.168;2023-05-23T05:00:24;13.50;99.90
21672;DHT22;10997;52.242;8.168;2023-05-23T05:05:26;13.40;99.90
21672;DHT22;10997;52.242;8.168;2023-05-23T05:10:26;13.40;99.90
21672;DHT22;10997;52.242;8.168;2023-05-23T05:15:27;13.40;99.90
21672;DHT22;10997;52.242;8.168;2023-05-23T05:20:27;13.30;99.90
21672;DHT22;10997;52.242;8.168;2023-05-23T05:25:28;13.30;99.90
21672;DHT22;10997;52.242;8.168;2023-05-23T05:30:32;13.30;99.90
21672;DHT22;10997;52.242;8.168;2023-05-23T05:35:34;13.20;99.90
21672;DHT22;10997;52.242;8.168;2023-05-23T05:40:35;13.20;99.90
21672;DHT22;10997;52.242;8.168;2023-05-23T05:45:35;13.10;99.90
21672;DHT22;10997;52.242;8.168;2023-05-23T05:50:36;13.10;99.90
21672;DHT22;10997;52.242;8.168;2023-05-23T05:55:37;13.10;99.90
21672;DHT22;10997;52.242;8.168;2023-05-23T06:00:37;12.90;99.90
21672;DHT22;10997;52.242;8.168;2023-05-23T06:05:41;12.70;99.90
21672;DHT22;10997;52.242;8.168;2023-05-23T06:10:42;12.70;99.90
21672;DHT22;10997;52.242;8.168;2023-05-23T06:15:43;12.60;99.90
21672;DHT22;10997;52.242;8.168;2023-05-23T06:20:43;12.50;99.90
21672;DHT22;10997;52.242;8.168;2023-05-23T06:25:44;12.50;99.90
21672;DHT22;10997;52.242;8.168;2023-05-23T06:30:45;12.40;99.90
21672;DHT22;10997;52.242;8.168;2023-05-23T06:35:45;12.40;99.90
21672;DHT22;10997;52.242;8.168;2023-05-23T06:40:46;12.40;99.90
21672;DHT22;10997;52.242;8.168;2023-05-23T06:45:47;12.20;99.90
21672;DHT22;10997;52.242;8.168;2023-05-23T06:50:48;12.20;99.90
21672;DHT22;10997;52.242;8.168;2023-05-23T06:55:48;12.10;99.90
21672;DHT22;10997;52.242;8.168;2023-05-23T07:00:49;12.20;99.90
21672;DHT22;10997;52.242;8.168;2023-05-23T07:05:50;12.20;99.90
21672;DHT22;10997;52.242;8.168;2023-05-23T07:10:50;12.30;99.90
21672;DHT22;10997;52.242;8.168;2023-05-23T07:15:51;12.30;99.90
21672;DHT22;10997;52.242;8.168;2023-05-23T07:20:52;12.30;99.90
21672;DHT22;10997;52.242;8.168;2023-05-23T07:25:52;12.40;99.90
21672;DHT22;10997;52.242;8.168;2023-05-23T07:30:54;12.30;99.90
21672;DHT22;10997;52.242;8.168;2023-05-23T07:35:56;12.40;99.90
21672;DHT22;10997;52.242;8.168;2023-05-23T07:40:57;12.30;99.90
21672;DHT22;10997;52.242;8.168;2023-05-23T07:45:57;12.20;99.90
21672;DHT22;10997;52.242;8.168;2023-05-23T07:50:58;12.10;99.90
21672;DHT22;10997;52.242;8.168;2023-05-23T07:55:59;12.00;99.90
21672;DHT22;10997;52.242;8.168;2023-05-23T08:01:00;12.10;99.90
21672;DHT22;10997;52.242;8.168;2023-05-23T08:06:03;12.10;99.90
21672;DHT22;10997;52.242;8.168;2023-05-23T08:11:03;12.00;99.90
21672;DHT22;10997;52.242;8.168;2023-05-23T08:16:04;12.00;99.90
21672;DHT22;10997;52.242;8.168;2023-05-23T08:21:05;11.90;99.90
21672;DHT22;10997;52.242;8.168;2023-05-23T08:26:05;11.90;99.90
21672;DHT22;10997;52.242;8.168;2023-05-23T08:31:06;11.80;99.90
21672;DHT22;10997;52.242;8.168;2023-05-23T08:36:07;11.80;99.90
21672;DHT22;10997;52.242;8.168;2023-05-23T08:41:20;11.80;99.90
21672;DHT22;10997;52.242;8.168;2023-05-23T08:46:22;11.80;99.90
21672;DHT22;10997;52.242;8.168;2023-05-23T08:51:25;11.60;99.90
21672;DHT22;10997;52.242;8.168;2023-05-23T08:56:26;11.60;99.90
21672;DHT22;10997;52.242;8.168;2023-05-23T09:01:28;11.50;99.90
21672;DHT22;10997;52.242;8.168;2023-05-23T09:06:30;11.50;99.90
21672;DHT22;10997;52.242;8.168;2023-05-23T09:11:31;11.40;99.90
21672;DHT22;10997;52.242;8.168;2023-05-23T09:16:33;11.40;99.90
21672;DHT22;10997;52.242;8.168;2023-05-23T09:21:34;11.50;99.90
21672;DHT22;10997;52.242;8.168;2023-05-23T09:26:35;11.40;99.90
21672;DHT22;10997;52.242;8.168;2023-05-23T09:31:35;11.40;99.90
21672;DHT22;10997;52.242;8.168;2023-05-23T09:36:39;11.40;99.90
21672;DHT22;10997;52.242;8.168;2023-05-23T09:41:40;11.30;99.90
21672;DHT22;10997;52.242;8.168;2023-05-23T09:46:41;11.20;99.90
21672;DHT22;10997;52.242;8.168;2023-05-23T09:51:41;11.20;99.90
21672;DHT22;10997;52.242;8.168;2023-05-23T09:56:43;11.30;99.90
21672;DHT22;10997;52.242;8.168;2023-05-23T10:01:43;11.60;99.90
21672;DHT22;10997;52.242;8.168;2023-05-23T10:06:53;11.90;99.90
21672;DHT22;10997;52.242;8.168;2023-05-23T10:17:18;12.40;99.90
21672;DHT22;10997;52.242;8.168;2023-05-23T10:22:20;12.40;99.90
21672;DHT22;10997;52.242;8.168;2023-05-23T10:27:21;12.60;99.90
21672;DHT22;10997;52.242;8.168;2023-05-23T10:32:23;12.80;99.90
21672;DHT22;10997;52.242;8.168;2023-05-23T10:37:27;13.50;99.90
21672;DHT22;10997;52.242;8.168;2023-05-23T10:47:35;13.20;99.90
21672;DHT22;10997;52.242;8.168;2023-05-23T10:52:40;13.20;99.90
21672;DHT22;10997;52.242;8.168;2023-05-23T10:57:40;13.20;99.90
21672;DHT22;10997;52.242;8.168;2023-05-23T11:02:52;13.40;99.90
21672;DHT22;10997;52.242;8.168;2023-05-23T11:08:11;13.60;99.90
21672;DHT22;10997;52.242;8.168;2023-05-23T11:13:15;13.80;99.90
21672;DHT22;10997;52.242;8.168;2023-05-23T11:18:25;14.00;99.90
21672;DHT22;10997;52.242;8.168;2023-05-23T11:23:39;14.20;99.90
21672;DHT22;10997;52.242;8.168;2023-05-23T11:28:57;14.10;99.90
21672;DHT22;10997;52.242;8.168;2023-05-23T11:33:58;14.30;99.90
21672;DHT22;10997;52.242;8.168;2023-05-23T11:39:01;14.30;99.90
21672;DHT22;10997;52.242;8.168;2023-05-23T11:44:10;14.30;99.90
21672;DHT22;10997;52.242;8.168;2023-05-23T11:49:11;15.10;99.90
21672;DHT22;10997;52.242;8.168;2023-05-23T11:54:12;15.60;99.90
21672;DHT22;10997;52.242;8.168;2023-05-23T11:59:14;15.90;99.90
21672;DHT22;10997;52.242;8.168;2023-05-23T12:04:14;16.00;99.90
21672;DHT22;10997;52.242;8.168;2023-05-23T12:09:15;15.70;99.90
21672;DHT22;10997;52.242;8.168;2023-05-23T12:14:17;15.60;99.90
21672;DHT22;10997;52.242;8.168;2023-05-23T12:19:18;15.20;99.90
21672;DHT22;10997;52.242;8.168;2023-05-23T12:24:20;14.80;99.90
21672;DHT22;10997;52.242;8.168;2023-05-23T12:29:30;15.20;99.90
21672;DHT22;10997;52.242;8.168;2023-05-23T12:34:31;15.30;99.90
21672;DHT22;10997;52.242;8.168;2023-05-23T12:39:32;15.20;99.90
21672;DHT22;10997;52.242;8.168;2023-05-23T12:44:33;15.80;99.90
21672;DHT22;10997;52.242;8.168;2023-05-23T12:49:34;16.10;99.90
21672;DHT22;10997;52.242;8.168;2023-05-23T12:54:34;15.80;99.90
21672;DHT22;10997;52.242;8.168;2023-05-23T12:59:35;15.70;99.90
21672;DHT22;10997;52.242;8.168;2023-05-23T13:04:36;15.90;99.90
21672;DHT22;10997;52.242;8.168;2023-05-23T13:09:36;15.80;99.90
21672;DHT22;10997;52.242;8.168;2023-05-23T13:14:37;15.50;99.90
21672;DHT22;10997;52.242;8.168;2023-05-23T13:19:38;15.40;99.90
21672;DHT22;10997;52.242;8.168;2023-05-23T13:24:39;15.20;99.90
21672;DHT22;10997;52.242;8.168;2023-05-23T13:29:40;15.20;99.90
21672;DHT22;10997;52.242;8.168;2023-05-23T13:34:41;15.20;99.90
21672;DHT22;10997;52.242;8.168;2023-05-23T13:39:42;15.10;99.90
21672;DHT22;10997;52.242;8.168;2023-05-23T13:44:42;15.40;99.90
21672;DHT22;10997;52.242;8.168;2023-05-23T13:49:43;15.40;99.90
21672;DHT22;10997;52.242;8.168;2023-05-23T13:54:44;15.70;99.90
21672;DHT22;10997;52.242;8.168;2023-05-23T13:59:45;15.90;99.90
21672;DHT22;10997;52.242;8.168;2023-05-23T14:04:50;16.10;99.90
21672;DHT22;10997;52.242;8.168;2023-05-23T14:09:51;15.70;99.90
21672;DHT22;10997;52.242;8.168;2023-05-23T14:14:52;15.90;99.90
21672;DHT22;10997;52.242;8.168;2023-05-23T14:19:52;15.80;99.90
21672;DHT22;10997;52.242;8.168;2023-05-23T14:24:53;15.40;99.90
21672;DHT22;10997;52.242;8.168;2023-05-23T14:29:53;15.50;99.90
21672;DHT22;10997;52.242;8.168;2023-05-23T14:34:54;16.00;99.90
21672;DHT22;10997;52.242;8.168;2023-05-23T14:39:54;16.10;99.90
21672;DHT22;10997;52.242;8.168;2023-05-23T14:44:55;16.00;99.90
21672;DHT22;10997;52.242;8.168;2023-05-23T14:49:56;15.50;99.90
21672;DHT22;10997;52.242;8.168;2023-05-23T14:54:56;15.40;99.90
21672;DHT22;10997;52.242;8.168;2023-05-23T14:59:57;15.80;99.90
21672;DHT22;10997;52.242;8.168;2023-05-23T15:04:58;15.60;99.90
21672;DHT22;10997;52.242;8.168;2023-05-23T15:09:58;15.70;99.90
21672;DHT22;10997;52.242;8.168;2023-05-23T15:14:59;15.50;99.90
21672;DHT22;10997;52.242;8.168;2023-05-23T15:20:03;15.10;99.90
21672;DHT22;10997;52.242;8.168;2023-05-23T15:25:04;15.00;99.90
21672;DHT22;10997;52.242;8.168;2023-05-23T15:30:06;15.00;99.90
21672;DHT22;10997;52.242;8.168;2023-05-23T15:35:07;15.40;99.90
21672;DHT22;10997;52.242;8.168;2023-05-23T15:40:08;15.10;99.90
21672;DHT22;10997;52.242;8.168;2023-05-23T15:45:10;14.90;99.90
21672;DHT22;10997;52.242;8.168;2023-05-23T15:50:10;14.80;99.90
21672;DHT22;10997;52.242;8.168;2023-05-23T15:55:11;15.10;99.90
21672;DHT22;10997;52.242;8.168;2023-05-23T16:00:12;15.70;99.90
21672;DHT22;10997;52.242;8.168;2023-05-23T16:05:13;16.00;99.90
21672;DHT22;10997;52.242;8.168;2023-05-23T16:10:13;15.70;99.90
21672;DHT22;10997;52.242;8.168;2023-05-23T16:15:14;15.20;99.90
21672;DHT22;10997;52.242;8.168;2023-05-23T16:20:15;15.60;99.90
21672;DHT22;10997;52.242;8.168;2023-05-23T16:25:15;15.90;99.90
21672;DHT22;10997;52.242;8.168;2023-05-23T16:30:16;15.10;99.90
21672;DHT22;10997;52.242;8.168;2023-05-23T16:35:17;15.30;99.90
21672;DHT22;10997;52.242;8.168;2023-05-23T16:40:17;15.60;99.90
21672;DHT22;10997;52.242;8.168;2023-05-23T16:45:18;15.90;99.90
21672;DHT22;10997;52.242;8.168;2023-05-23T16:50:19;15.70;99.90
21672;DHT22;10997;52.242;8.168;2023-05-23T16:55:20;15.40;99.90
21672;DHT22;10997;52.242;8.168;2023-05-23T17:00:21;15.10;99.90
21672;DHT22;10997;52.242;8.168;2023-05-23T17:05:21;14.70;99.90
21672;DHT22;10997;52.242;8.168;2023-05-23T17:10:22;14.70;99.90
21672;DHT22;10997;52.242;8.168;2023-05-23T17:15:23;14.60;99.90
21672;DHT22;10997;52.242;8.168;2023-05-23T17:20:23;14.70;99.90
21672;DHT22;10997;52.242;8.168;2023-05-23T17:25:26;14.80;99.90
21672;DHT22;10997;52.242;8.168;2023-05-23T17:30:26;14.70;99.90
21672;DHT22;10997;52.242;8.168;2023-05-23T17:35:27;14.60;99.90
21672;DHT22;10997;52.242;8.168;2023-05-23T17:40:28;14.80;99.90
21672;DHT22;10997;52.242;8.168;2023-05-23T17:45:29;14.90;99.90
21672;DHT22;10997;52.242;8.168;2023-05-23T17:50:30;14.40;99.90
21672;DHT22;10997;52.242;8.168;2023-05-23T17:55:31;14.40;99.90
21672;DHT22;10997;52.242;8.168;2023-05-23T18:00:32;14.20;99.90
21672;DHT22;10997;52.242;8.168;2023-05-23T18:05:32;14.00;99.90
21672;DHT22;10997;52.242;8.168;2023-05-23T18:10:33;13.80;99.90
21672;DHT22;10997;52.242;8.168;2023-05-23T18:15:34;13.80;99.90
21672;DHT22;10997;52.242;8.168;2023-05-23T18:20:34;13.90;99.90
21672;DHT22;10997;52.242;8.168;2023-05-23T18:25:35;13.80;99.90
21672;DHT22;10997;52.242;8.168;2023-05-23T18:30:35;13.60;99.90
21672;DHT22;10997;52.242;8.168;2023-05-23T18:35:36;13.40;99.90
21672;DHT22;10997;52.242;8.168;2023-05-23T18:40:37;13.40;99.90
21672;DHT22;10997;52.242;8.168;2023-05-23T18:45:37;13.30;99.90
21672;DHT22;10997;52.242;8.168;2023-05-23T18:50:38;13.30;99.90
21672;DHT22;10997;52.242;8.168;2023-05-23T18:55:39;13.10;99.90
21672;DHT22;10997;52.242;8.168;2023-05-23T19:00:39;12.90;99.90
21672;DHT22;10997;52.242;8.168;2023-05-23T19:05:41;12.50;99.90
21672;DHT22;10997;52.242;8.168;2023-05-23T19:10:41;12.40;99.90
21672;DHT22;10997;52.242;8.168;2023-05-23T19:15:42;12.20;99.90
21672;DHT22;10997;52.242;8.168;2023-05-23T19:20:45;12.10;99.90
21672;DHT22;10997;52.242;8.168;2023-05-23T19:25:46;11.80;99.90
21672;DHT22;10997;52.242;8.168;2023-05-23T19:30:47;11.50;99.90
21672;DHT22;10997;52.242;8.168;2023-05-23T19:35:48;11.20;99.90
21672;DHT22;10997;52.242;8.168;2023-05-23T19:40:48;11.00;99.90
21672;DHT22;10997;52.242;8.168;2023-05-23T19:45:49;10.80;99.90
21672;DHT22;10997;52.242;8.168;2023-05-23T19:50:50;10.70;99.90
21672;DHT22;10997;52.242;8.168;2023-05-23T19:55:50;10.60;99.90
21672;DHT22;10997;52.242;8.168;2023-05-23T20:00:51;10.50;99.90
21672;DHT22;10997;52.242;8.168;2023-05-23T20:05:52;10.40;99.90
21672;DHT22;10997;52.242;8.168;2023-05-23T20:10:52;10.20;99.90
21672;DHT22;10997;52.242;8.168;2023-05-23T20:15:55;9.90;99.90
21672;DHT22;10997;52.242;8.168;2023-05-23T20:20:56;9.80;99.90
21672;DHT22;10997;52.242;8.168;2023-05-23T20:25:56;9.70;99.90
21672;DHT22;10997;52.242;8.168;2023-05-23T20:30:57;9.60;99.90
21672;DHT22;10997;52.242;8.168;2023-05-23T20:35:57;9.50;99.90
21672;DHT22;10997;52.242;8.168;2023-05-23T20:40:59;9.50;99.90
21672;DHT22;10997;52.242;8.168;2023-05-23T20:46:06;9.50;99.90
21672;DHT22;10997;52.242;8.168;2023-05-23T20:51:08;9.40;99.90
21672;DHT22;10997;52.242;8.168;2023-05-23T20:56:09;9.30;99.90
21672;DHT22;10997;52.242;8.168;2023-05-23T21:01:09;9.20;99.90
21672;DHT22;10997;52.242;8.168;2023-05-23T21:06:10;9.10;99.90
21672;DHT22;10997;52.242;8.168;2023-05-23T21:11:11;9.10;99.90
21672;DHT22;10997;52.242;8.168;2023-05-23T21:16:11;8.90;99.90
21672;DHT22;10997;52.242;8.168;2023-05-23T21:21:13;8.80;99.90
21672;DHT22;10997;52.242;8.168;2023-05-23T21:26:14;8.70;99.90
21672;DHT22;10997;52.242;8.168;2023-05-23T21:31:14;8.70;99.90
21672;DHT22;10997;52.242;8.168;2023-05-23T21:36:15;8.70;99.90
21672;DHT22;10997;52.242;8.168;2023-05-23T21:41:16;8.60;99.90
21672;DHT22;10997;52.242;8.168;2023-05-23T21:46:18;8.60;99.90
21672;DHT22;10997;52.242;8.168;2023-05-23T21:51:18;8.50;99.90
21672;DHT22;10997;52.242;8.168;2023-05-23T21:56:19;8.40;99.90
21672;DHT22;10997;52.242;8.168;2023-05-23T22:01:20;8.40;99.90
21672;DHT22;10997;52.242;8.168;2023-05-23T22:06:20;8.40;99.90
21672;DHT22;10997;52.242;8.168;2023-05-23T22:11:21;8.40;99.90
21672;DHT22;10997;52.242;8.168;2023-05-23T22:16:21;8.40;99.90
21672;DHT22;10997;52.242;8.168;2023-05-23T22:21:23;8.30;99.90
21672;DHT22;10997;52.242;8.168;2023-05-23T22:26:24;8.30;99.90
21672;DHT22;10997;52.242;8.168;2023-05-23T22:31:25;8.20;99.90
21672;DHT22;10997;52.242;8.168;2023-05-23T22:36:28;8.10;99.90
21672;DHT22;10997;52.242;8.168;2023-05-23T22:41:28;8.10;99.90
21672;DHT22;10997;52.242;8.168;2023-05-23T22:46:29;8.10;99.90
21672;DHT22;10997;52.242;8.168;2023-05-23T22:51:30;8.10;99.90
21672;DHT22;10997;52.242;8.168;2023-05-23T22:56:33;8.10;99.90
21672;DHT22;10997;52.242;8.168;2023-05-23T23:01:33;8.10;99.90
21672;DHT22;10997;52.242;8.168;2023-05-23T23:06:34;8.00;99.90
21672;DHT22;10997;52.242;8.168;2023-05-23T23:11:35;7.90;99.90
21672;DHT22;10997;52.242;8.168;2023-05-23T23:16:35;7.80;99.90
21672;DHT22;10997;52.242;8.168;2023-05-23T23:21:37;7.80;99.90
21672;DHT22;10997;52.242;8.168;2023-05-23T23:26:38;7.60;99.90
21672;DHT22;10997;52.242;8.168;2023-05-23T23:31:38;7.60;99.90
21672;DHT22;10997;52.242;8.168;2023-05-23T23:36:39;7.60;99.90
21672;DHT22;10997;52.242;8.168;2023-05-23T23:41:39;7.50;99.90
21672;DHT22;10997;52.242;8.168;2023-05-23T23:46:40;7.50;99.90
21672;DHT22;10997;52.242;8.168;2023-05-23T23:51:41;7.50;99.90
21672;DHT22;10997;52.242;8.168;2023-05-23T23:56:41;7.50;99.90
